createdAt,value
2023-03-29T00:01:36.190Z,50.32
2023-03-29T00:04:06.519Z,49.79
2023-03-29T00:06:34.039Z,48.42
2023-03-29T00:09:01.910Z,48.07
2023-03-29T00:11:28.889Z,49.66
2023-03-29T00:13:55.545Z,48.75
2023-03-29T00:16:22.831Z,47.97
2023-03-29T00:18:49.421Z,49.31
2023-03-29T00:21:17.290Z,51.12
2023-03-29T00:23:43.922Z,50.09
2023-03-29T00:26:10.856Z,49.35
2023-03-29T00:28:37.452Z,50.91
2023-03-29T00:31:12.243Z,49.85
2023-03-29T00:33:39.593Z,52.30
2023-03-29T00:36:08.873Z,53.17
2023-03-29T00:38:35.802Z,49.33
2023-03-29T00:41:04.251Z,49.10
2023-03-29T00:43:31.152Z,52.76
2023-03-29T00:45:57.813Z,54.53
2023-03-29T00:48:30.100Z,52.43
2023-03-29T00:51:03.108Z,52.55
2023-03-29T00:53:35.766Z,48.62
2023-03-29T00:56:15.982Z,49.12
2023-03-29T00:59:08.169Z,48.67
2023-03-29T01:01:45.500Z,47.90
2023-03-29T01:04:25.312Z,48.46
2023-03-29T01:07:06.610Z,51.29
2023-03-29T01:09:37.809Z,52.77
2023-03-29T01:12:12.238Z,52.71
2023-03-29T01:14:49.129Z,52.75
2023-03-29T01:17:16.218Z,52.60
2023-03-29T01:19:47.700Z,51.51
2023-03-29T01:22:14.797Z,53.24
2023-03-29T01:24:52.723Z,53.21
2023-03-29T01:27:31.782Z,53.10
2023-03-29T01:30:07.654Z,55.41
2023-03-29T01:33:06.347Z,53.86
2023-03-29T01:35:51.178Z,54.12
2023-03-29T01:38:25.887Z,54.59
2023-03-29T01:40:52.520Z,56.64
2023-03-29T01:43:27.812Z,56.85
2023-03-29T01:46:14.477Z,56.66
2023-03-29T01:48:54.829Z,58.93
2023-03-29T01:51:26.724Z,56.88
2023-03-29T01:54:00.762Z,57.40
2023-03-29T01:56:29.487Z,58.05
2023-03-29T01:59:04.136Z,58.77
2023-03-29T02:01:38.460Z,58.20
2023-03-29T02:04:10.558Z,58.49
2023-03-29T02:06:37.912Z,58.67
2023-03-29T02:09:05.054Z,57.33
2023-03-29T02:11:32.163Z,56.39
2023-03-29T02:13:59.058Z,58.18
2023-03-29T02:16:25.741Z,57.74
2023-03-29T02:18:56.317Z,59.15
2023-03-29T02:21:58.179Z,58.23
2023-03-29T02:24:26.330Z,58.99
2023-03-29T02:26:52.985Z,59.71
2023-03-29T02:29:19.610Z,60.14
2023-03-29T02:32:00.161Z,59.08
2023-03-29T02:34:30.339Z,60.22
2023-03-29T02:37:06.861Z,59.77
2023-03-29T02:39:34.812Z,58.69
2023-03-29T02:42:03.630Z,60.12
2023-03-29T02:44:33.380Z,59.46
2023-03-29T02:47:17.992Z,61.37
2023-03-29T02:49:44.739Z,62.42
2023-03-29T02:52:18.925Z,59.34
2023-03-29T02:54:49.007Z,56.49
2023-03-29T02:57:15.788Z,54.24
2023-03-29T02:59:44.653Z,54.46
2023-03-29T03:02:12.323Z,56.03
2023-03-29T03:04:39.188Z,56.17
2023-03-29T03:07:05.868Z,56.73
2023-03-29T03:09:32.545Z,59.21
2023-03-29T03:11:59.162Z,59.88
2023-03-29T03:14:25.714Z,61.35
2023-03-29T03:16:52.824Z,61.60
2023-03-29T03:19:19.942Z,61.69
2023-03-29T03:21:47.136Z,62.15
2023-03-29T03:24:13.776Z,59.70
2023-03-29T03:26:40.373Z,59.91
2023-03-29T03:29:07.012Z,60.53
2023-03-29T03:31:33.747Z,59.12
2023-03-29T03:34:00.387Z,59.61
2023-03-29T03:36:29.544Z,58.32
2023-03-29T03:38:56.026Z,60.13
2023-03-29T03:41:22.768Z,60.92
2023-03-29T03:43:49.680Z,62.01
2023-03-29T03:46:17.343Z,64.00
2023-03-29T03:48:46.004Z,62.63
2023-03-29T03:51:13.090Z,63.62
2023-03-29T03:53:40.046Z,62.51
2023-03-29T03:56:09.195Z,60.76
2023-03-29T03:58:37.251Z,60.73
2023-03-29T04:01:05.006Z,60.93
2023-03-29T04:03:32.440Z,61.31
2023-03-29T04:06:02.721Z,61.31
2023-03-29T04:08:29.316Z,61.58
2023-03-29T04:10:58.416Z,63.63
2023-03-29T04:13:25.822Z,64.82
2023-03-29T04:15:58.108Z,62.89
2023-03-29T04:18:26.309Z,61.60
2023-03-29T04:20:53.013Z,60.01
2023-03-29T04:23:19.582Z,61.63
2023-03-29T04:25:46.266Z,62.54
2023-03-29T04:28:13.525Z,63.88
2023-03-29T04:30:40.290Z,63.89
2023-03-29T04:33:07.071Z,61.43
2023-03-29T04:35:33.801Z,60.64
2023-03-29T04:38:00.507Z,58.39
2023-03-29T04:40:27.423Z,59.93
2023-03-29T04:42:54.453Z,58.85
2023-03-29T04:45:21.399Z,57.62
2023-03-29T04:47:48.281Z,56.75
2023-03-29T04:50:15.847Z,56.80
2023-03-29T04:52:42.616Z,56.42
2023-03-29T04:55:09.433Z,55.46
2023-03-29T04:57:36.138Z,55.50
2023-03-29T05:00:13.737Z,54.46
2023-03-29T05:02:40.656Z,53.23
2023-03-29T05:05:07.553Z,53.67
2023-03-29T05:07:34.115Z,50.65
2023-03-29T05:10:00.844Z,51.91
2023-03-29T05:12:27.475Z,52.45
2023-03-29T05:14:54.138Z,51.76
2023-03-29T05:17:21.831Z,51.83
2023-03-29T05:19:48.443Z,52.83
2023-03-29T05:22:15.283Z,52.63
2023-03-29T05:24:42.211Z,53.13
2023-03-29T05:27:08.870Z,54.24
2023-03-29T05:29:35.583Z,55.58
2023-03-29T05:32:02.399Z,54.97
2023-03-29T05:34:29.805Z,53.39
2023-03-29T05:36:56.928Z,53.60
2023-03-29T05:39:24.000Z,53.75
2023-03-29T05:41:50.806Z,53.53
2023-03-29T05:44:17.464Z,52.50
2023-03-29T05:46:44.117Z,51.57
2023-03-29T05:49:10.735Z,51.63
2023-03-29T05:51:37.286Z,50.89
2023-03-29T05:54:04.081Z,50.63
2023-03-29T05:56:30.694Z,50.91
2023-03-29T05:58:57.256Z,50.05
2023-03-29T06:01:24.659Z,49.28
2023-03-29T06:03:52.510Z,48.35
2023-03-29T06:06:19.366Z,47.54
2023-03-29T06:08:46.474Z,46.41
2023-03-29T06:11:13.867Z,46.07
2023-03-29T06:13:42.195Z,45.69
2023-03-29T06:16:10.718Z,44.21
2023-03-29T06:18:40.297Z,43.96
2023-03-29T06:21:08.037Z,43.76
2023-03-29T06:23:36.359Z,42.84
2023-03-29T06:26:03.998Z,42.79
2023-03-29T06:28:30.664Z,42.47
2023-03-29T06:31:02.724Z,41.58
2023-03-29T06:33:30.977Z,41.54
2023-03-29T06:35:57.869Z,41.72
2023-03-29T06:38:26.807Z,42.24
2023-03-29T06:41:01.078Z,41.68
2023-03-29T06:43:27.800Z,41.13
2023-03-29T06:45:55.053Z,41.64
2023-03-29T06:48:21.696Z,42.04
2023-03-29T06:50:49.162Z,42.30
2023-03-29T06:53:16.134Z,42.28
2023-03-29T06:55:43.005Z,40.39
2023-03-29T06:58:09.650Z,41.88
2023-03-29T07:00:39.195Z,41.38
2023-03-29T07:03:08.259Z,41.27
2023-03-29T07:05:42.039Z,39.64
2023-03-29T07:08:08.743Z,39.67
2023-03-29T07:10:41.302Z,40.55
2023-03-29T07:13:11.113Z,42.17
2023-03-29T07:15:37.800Z,41.76
2023-03-29T07:18:05.080Z,42.50
2023-03-29T07:20:33.774Z,40.00
2023-03-29T07:23:00.741Z,41.19
2023-03-29T07:25:30.024Z,39.65
2023-03-29T07:27:56.783Z,38.99
2023-03-29T07:30:26.518Z,41.13
2023-03-29T07:32:54.117Z,34.64
2023-03-29T07:35:21.166Z,36.04
2023-03-29T07:37:47.915Z,37.10
2023-03-29T07:40:18.719Z,40.28
2023-03-29T07:42:56.630Z,35.45
2023-03-29T07:45:26.508Z,36.83
2023-03-29T07:47:58.679Z,38.02
2023-03-29T07:50:26.745Z,40.27
2023-03-29T07:52:53.872Z,33.43
2023-03-29T07:55:20.777Z,34.86
2023-03-29T07:57:49.194Z,32.06
2023-03-29T08:00:16.855Z,39.79
2023-03-29T08:02:49.841Z,34.87
2023-03-29T08:05:26.116Z,36.46
2023-03-29T08:07:56.396Z,35.37
2023-03-29T08:10:23.449Z,36.88
2023-03-29T08:12:50.628Z,37.91
2023-03-29T08:15:17.306Z,38.40
2023-03-29T08:17:44.344Z,38.44
2023-03-29T08:20:16.398Z,30.72
2023-03-29T08:22:43.282Z,36.57
2023-03-29T08:25:10.360Z,37.97
2023-03-29T08:27:37.815Z,37.96
2023-03-29T08:30:08.158Z,36.04
2023-03-29T08:32:35.522Z,38.56
2023-03-29T08:35:04.401Z,33.58
2023-03-29T08:37:32.641Z,36.53
2023-03-29T08:39:59.366Z,35.40
2023-03-29T08:42:52.840Z,32.42
2023-03-29T08:45:44.370Z,32.58
2023-03-29T08:48:22.990Z,33.07
2023-03-29T08:50:54.308Z,31.88
2023-03-29T08:53:29.151Z,30.95
2023-03-29T08:55:58.915Z,34.14
2023-03-29T08:58:29.146Z,32.18
2023-03-29T09:00:58.422Z,34.69
2023-03-29T09:03:30.204Z,36.08
2023-03-29T09:06:20.830Z,29.36
2023-03-29T09:08:50.190Z,33.49
2023-03-29T09:11:22.540Z,31.96
2023-03-29T09:14:04.073Z,31.35
2023-03-29T09:16:43.819Z,31.96
2023-03-29T09:19:34.703Z,28.06
2023-03-29T09:22:24.472Z,31.30
2023-03-29T09:25:50.735Z,28.17
2023-03-29T09:28:27.140Z,28.23
2023-03-29T09:31:06.464Z,28.70
2023-03-29T09:33:47.639Z,28.86
2023-03-29T09:36:23.784Z,28.84
2023-03-29T09:38:54.579Z,29.73
2023-03-29T09:41:41.621Z,29.84
2023-03-29T09:44:30.800Z,29.03
2023-03-29T09:47:28.129Z,28.36
2023-03-29T09:49:59.251Z,28.41
2023-03-29T09:52:26.324Z,29.67
2023-03-29T09:54:53.281Z,30.45
2023-03-29T09:57:20.675Z,30.84
2023-03-29T09:59:51.415Z,30.64
2023-03-29T10:02:21.153Z,29.79
2023-03-29T10:04:55.484Z,28.83
2023-03-29T10:07:22.779Z,29.14
2023-03-29T10:09:52.612Z,27.56
2023-03-29T10:12:20.231Z,29.29
2023-03-29T10:14:52.231Z,28.35
2023-03-29T10:17:25.233Z,29.34
2023-03-29T10:19:55.930Z,28.55
2023-03-29T10:22:25.607Z,28.99
2023-03-29T10:24:55.447Z,29.10
2023-03-29T10:27:29.213Z,27.98
2023-03-29T10:29:58.739Z,29.47
2023-03-29T10:32:33.858Z,29.61
2023-03-29T10:35:07.375Z,28.96
2023-03-29T10:37:34.355Z,29.90
2023-03-29T10:40:01.541Z,30.46
2023-03-29T10:42:28.654Z,29.58
2023-03-29T10:45:00.036Z,30.49
2023-03-29T10:47:34.570Z,30.55
2023-03-29T10:50:01.898Z,31.46
2023-03-29T10:52:29.878Z,31.22
2023-03-29T10:54:56.957Z,31.99
2023-03-29T10:57:34.107Z,31.57
2023-03-29T11:00:15.519Z,31.28
2023-03-29T11:02:50.966Z,33.06
2023-03-29T11:05:20.329Z,32.65
2023-03-29T11:08:04.166Z,35.67
2023-03-29T11:10:52.935Z,35.90
2023-03-29T11:13:38.161Z,35.49
2023-03-29T11:16:23.326Z,34.81
2023-03-29T11:19:03.799Z,34.37
2023-03-29T11:21:45.809Z,34.67
2023-03-29T11:25:02.439Z,35.62
2023-03-29T11:27:47.508Z,34.23
2023-03-29T11:30:25.822Z,35.52
2023-03-29T11:33:07.821Z,35.79
2023-03-29T11:35:56.338Z,35.02
2023-03-29T11:38:35.124Z,35.57
2023-03-29T11:41:02.764Z,35.40
2023-03-29T11:43:35.481Z,36.08
2023-03-29T11:46:29.690Z,35.99
2023-03-29T11:49:11.230Z,35.93
2023-03-29T11:51:59.643Z,36.14
2023-03-29T11:54:34.838Z,35.45
2023-03-29T11:57:10.364Z,35.90
2023-03-29T11:59:49.815Z,36.48
2023-03-29T12:02:46.338Z,36.71
2023-03-29T12:05:34.882Z,35.13
2023-03-29T12:08:09.690Z,35.51
2023-03-29T12:10:42.019Z,35.98
2023-03-29T12:13:14.361Z,35.81
2023-03-29T12:15:48.472Z,37.30
2023-03-29T12:18:40.988Z,37.47
2023-03-29T12:21:13.333Z,36.02
2023-03-29T12:23:43.312Z,36.21
2023-03-29T12:26:52.626Z,34.85
2023-03-29T12:29:28.341Z,36.00
2023-03-29T12:32:30.274Z,34.70
2023-03-29T12:35:15.432Z,35.85
2023-03-29T12:37:42.428Z,35.20
2023-03-29T12:40:16.233Z,35.29
2023-03-29T12:42:46.999Z,34.81
2023-03-29T12:45:20.489Z,34.79
2023-03-29T12:47:50.991Z,34.89
2023-03-29T12:50:37.949Z,34.30
2023-03-29T12:53:36.519Z,35.65
2023-03-29T12:56:03.746Z,35.09
2023-03-29T12:58:39.591Z,34.83
2023-03-29T13:01:08.741Z,34.14
2023-03-29T13:03:46.542Z,34.83
2023-03-29T13:06:13.516Z,34.95
2023-03-29T13:08:47.971Z,35.21
2023-03-29T13:11:32.472Z,35.09
2023-03-29T13:14:01.807Z,34.86
2023-03-29T13:16:35.944Z,34.24
2023-03-29T13:19:08.463Z,35.50
2023-03-29T13:22:06.333Z,35.64
2023-03-29T13:24:39.701Z,34.52
2023-03-29T13:27:25.317Z,35.47
2023-03-29T13:30:15.478Z,33.98
2023-03-29T13:33:13.993Z,34.96
2023-03-29T13:36:00.119Z,34.98
2023-03-29T13:38:31.675Z,34.58
2023-03-29T13:41:02.399Z,35.61
2023-03-29T13:43:41.273Z,35.41
2023-03-29T13:46:24.967Z,35.75
2023-03-29T13:49:06.849Z,35.22
2023-03-29T13:51:40.221Z,35.51
2023-03-29T13:54:15.581Z,35.77
2023-03-29T13:56:57.058Z,35.55
2023-03-29T13:59:49.279Z,35.20
2023-03-29T14:02:42.577Z,34.69
2023-03-29T14:05:13.562Z,35.38
2023-03-29T14:07:49.270Z,34.98
2023-03-29T14:10:21.489Z,34.67
2023-03-29T14:12:49.389Z,34.78
2023-03-29T14:15:42.512Z,34.93
2023-03-29T14:18:13.843Z,33.72
2023-03-29T14:20:46.144Z,34.22
2023-03-29T14:23:19.611Z,34.37
2023-03-29T14:25:46.757Z,33.83
2023-03-29T14:28:27.878Z,33.96
2023-03-29T14:30:56.805Z,33.38
2023-03-29T14:33:28.661Z,34.38
2023-03-29T14:35:57.089Z,33.86
2023-03-29T14:38:26.239Z,33.42
2023-03-29T14:40:54.972Z,33.91
2023-03-29T14:43:23.997Z,34.33
2023-03-29T14:45:50.980Z,34.08
2023-03-29T14:48:18.162Z,33.95
2023-03-29T14:50:46.497Z,34.27
2023-03-29T14:53:19.876Z,34.83
2023-03-29T14:55:51.653Z,33.91
2023-03-29T14:58:31.862Z,34.97
2023-03-29T15:01:07.957Z,34.37
2023-03-29T15:03:49.176Z,33.89
2023-03-29T15:06:18.489Z,33.87
2023-03-29T15:08:57.920Z,33.90
2023-03-29T15:11:30.006Z,34.85
2023-03-29T15:14:08.867Z,35.84
2023-03-29T15:16:43.893Z,35.46
2023-03-29T15:19:17.297Z,35.33
2023-03-29T15:21:45.310Z,35.41
2023-03-29T15:24:23.029Z,37.01
2023-03-29T15:27:17.172Z,37.54
2023-03-29T15:29:55.980Z,37.69
2023-03-29T15:32:24.791Z,38.30
2023-03-29T15:35:02.859Z,37.92
2023-03-29T15:37:29.700Z,37.34
2023-03-29T15:39:58.030Z,37.94
2023-03-29T15:42:24.990Z,37.60
2023-03-29T15:44:56.230Z,38.70
2023-03-29T15:47:22.979Z,38.32
2023-03-29T15:49:49.611Z,39.88
2023-03-29T15:52:16.902Z,39.57
2023-03-29T15:54:43.782Z,38.15
2023-03-29T15:57:15.844Z,39.89
2023-03-29T15:59:43.635Z,38.57
2023-03-29T16:02:23.308Z,40.20
2023-03-29T16:04:50.660Z,38.67
2023-03-29T16:07:18.964Z,42.48
2023-03-29T16:09:46.196Z,41.52
2023-03-29T16:12:13.523Z,41.19
2023-03-29T16:14:41.885Z,41.95
2023-03-29T16:17:09.589Z,41.88
2023-03-29T16:19:36.255Z,41.10
2023-03-29T16:22:07.235Z,43.12
2023-03-29T16:24:35.031Z,41.32
2023-03-29T16:27:02.650Z,42.54
2023-03-29T16:29:29.768Z,42.61
2023-03-29T16:31:56.490Z,43.19
2023-03-29T16:34:24.217Z,43.48
2023-03-29T16:36:50.965Z,44.88
2023-03-29T16:39:18.298Z,44.65
2023-03-29T16:41:48.431Z,43.64
2023-03-29T16:44:23.226Z,44.76
2023-03-29T16:46:51.606Z,43.93
2023-03-29T16:49:18.294Z,46.62
2023-03-29T16:51:48.403Z,46.33
2023-03-29T16:54:17.174Z,45.83
2023-03-29T16:56:43.983Z,46.17
2023-03-29T16:59:10.855Z,45.35
2023-03-29T17:01:38.908Z,44.05
2023-03-29T17:04:05.614Z,46.74
2023-03-29T17:06:32.892Z,45.66
2023-03-29T17:09:00.644Z,45.87
2023-03-29T17:11:28.328Z,46.15
2023-03-29T17:13:55.147Z,49.13
2023-03-29T17:16:21.894Z,46.42
2023-03-29T17:18:48.535Z,48.03
2023-03-29T17:21:15.449Z,47.19
2023-03-29T17:23:42.119Z,49.86
2023-03-29T17:26:08.734Z,48.36
2023-03-29T17:28:35.877Z,48.50
2023-03-29T17:31:08.760Z,50.41
2023-03-29T17:33:36.335Z,50.41
2023-03-29T17:36:04.461Z,49.69
2023-03-29T17:38:33.936Z,48.86
2023-03-29T17:41:01.535Z,49.40
2023-03-29T17:43:28.495Z,51.92
2023-03-29T17:45:55.647Z,51.14
2023-03-29T17:48:23.659Z,51.47
2023-03-29T17:50:50.651Z,54.95
2023-03-29T17:53:17.205Z,50.20
2023-03-29T17:55:43.871Z,54.91
2023-03-29T17:58:10.432Z,55.19
2023-03-29T18:00:37.370Z,52.25
2023-03-29T18:03:04.192Z,55.22
2023-03-29T18:05:30.904Z,52.65
2023-03-29T18:07:57.520Z,51.42
2023-03-29T18:10:24.420Z,52.97
2023-03-29T18:12:51.740Z,51.62
2023-03-29T18:15:18.479Z,53.36
2023-03-29T18:17:45.072Z,52.51
2023-03-29T18:20:12.800Z,51.99
2023-03-29T18:22:41.420Z,53.01
2023-03-29T18:25:09.685Z,53.76
2023-03-29T18:27:37.985Z,55.38
2023-03-29T18:30:06.520Z,55.55
2023-03-29T18:32:33.382Z,55.18
2023-03-29T18:35:02.289Z,55.65
2023-03-29T18:37:28.749Z,59.09
2023-03-29T18:39:57.452Z,54.74
2023-03-29T18:42:24.113Z,56.21
2023-03-29T18:44:51.270Z,53.76
2023-03-29T18:47:18.364Z,53.73
2023-03-29T18:49:45.032Z,55.43
2023-03-29T18:52:11.720Z,54.14
2023-03-29T18:54:38.665Z,54.15
2023-03-29T18:57:05.230Z,54.12
2023-03-29T18:59:31.836Z,55.67
2023-03-29T19:01:58.613Z,55.22
2023-03-29T19:04:27.146Z,58.42
2023-03-29T19:06:55.617Z,54.95
2023-03-29T19:09:22.894Z,57.79
2023-03-29T19:11:49.506Z,58.09
2023-03-29T19:14:17.403Z,57.19
2023-03-29T19:16:44.132Z,59.82
2023-03-29T19:19:10.851Z,57.15
2023-03-29T19:21:39.063Z,56.46
2023-03-29T19:24:07.750Z,57.86
2023-03-29T19:26:34.370Z,60.10
2023-03-29T19:29:01.485Z,59.84
2023-03-29T19:31:28.401Z,58.39
2023-03-29T19:33:55.350Z,59.91
2023-03-29T19:36:22.292Z,58.62
2023-03-29T19:38:51.622Z,58.47
2023-03-29T19:41:18.178Z,59.20
2023-03-29T19:43:44.816Z,59.25
2023-03-29T19:46:13.391Z,59.51
2023-03-29T19:48:40.365Z,60.35
2023-03-29T19:51:07.979Z,58.60
2023-03-29T19:53:38.150Z,58.95
2023-03-29T19:56:07.601Z,60.02
2023-03-29T19:58:34.196Z,62.79
2023-03-29T20:01:01.147Z,59.93
2023-03-29T20:03:28.471Z,60.90
2023-03-29T20:05:56.570Z,59.17
2023-03-29T20:08:24.843Z,62.65
2023-03-29T20:11:03.549Z,61.10
2023-03-29T20:13:38.197Z,61.37
2023-03-29T20:16:07.737Z,61.28
2023-03-29T20:18:34.234Z,61.93
2023-03-29T20:21:02.133Z,60.29
2023-03-29T20:23:28.901Z,59.53
2023-03-29T20:25:55.486Z,59.79
2023-03-29T20:28:23.595Z,63.01
2023-03-29T20:30:51.478Z,63.19
2023-03-29T20:33:19.557Z,63.09
2023-03-29T20:35:46.953Z,60.90
2023-03-29T20:38:14.307Z,64.92
2023-03-29T20:40:42.305Z,63.31
2023-03-29T20:43:13.352Z,66.13
2023-03-29T20:45:52.125Z,64.47
2023-03-29T20:48:23.057Z,65.46
2023-03-29T20:50:50.727Z,64.95
2023-03-29T20:53:18.381Z,64.86
2023-03-29T20:55:45.160Z,63.75
2023-03-29T20:58:13.261Z,64.92
2023-03-29T21:00:40.431Z,65.93
2023-03-29T21:03:08.645Z,65.12
2023-03-29T21:05:35.708Z,66.08
2023-03-29T21:08:04.169Z,65.33
2023-03-29T21:10:30.925Z,64.03
2023-03-29T21:13:00.438Z,63.89
2023-03-29T21:15:30.541Z,63.39
2023-03-29T21:17:57.777Z,64.04
2023-03-29T21:20:24.664Z,62.93
2023-03-29T21:22:51.686Z,62.72
2023-03-29T21:25:18.721Z,64.22
2023-03-29T21:27:45.413Z,66.48
2023-03-29T21:30:12.253Z,65.24
2023-03-29T21:32:39.217Z,66.41
2023-03-29T21:35:06.446Z,65.85
2023-03-29T21:37:33.250Z,67.36
2023-03-29T21:39:59.930Z,66.80
2023-03-29T21:42:26.608Z,65.82
2023-03-29T21:44:53.204Z,65.39
2023-03-29T21:47:19.803Z,64.61
2023-03-29T21:49:46.430Z,67.69
2023-03-29T21:52:13.054Z,68.22
2023-03-29T21:54:39.642Z,69.18
2023-03-29T21:57:06.385Z,70.02
2023-03-29T21:59:32.997Z,69.24
2023-03-29T22:01:59.666Z,69.86
2023-03-29T22:04:35.965Z,70.57
2023-03-29T22:07:04.405Z,69.15
2023-03-29T22:09:32.857Z,71.04
2023-03-29T22:11:59.878Z,71.91
2023-03-29T22:14:28.587Z,70.12
2023-03-29T22:16:55.404Z,71.16
2023-03-29T22:19:22.175Z,70.00
2023-03-29T22:21:48.761Z,70.30
2023-03-29T22:24:16.484Z,70.23
2023-03-29T22:26:44.974Z,70.38
2023-03-29T22:29:12.227Z,69.24
2023-03-29T22:31:39.486Z,68.79
2023-03-29T22:34:06.751Z,67.84
2023-03-29T22:36:33.613Z,69.37
2023-03-29T22:39:00.532Z,68.03
2023-03-29T22:41:28.250Z,70.22
2023-03-29T22:43:57.353Z,71.06
2023-03-29T22:46:24.220Z,70.76
2023-03-29T22:48:51.442Z,70.68
2023-03-29T22:51:18.315Z,71.48
2023-03-29T22:53:47.042Z,70.60
2023-03-29T22:56:15.475Z,71.44
2023-03-29T22:58:42.577Z,70.93
2023-03-29T23:01:09.430Z,71.68
2023-03-29T23:03:36.765Z,71.67
2023-03-29T23:06:03.782Z,70.78
2023-03-29T23:08:32.807Z,71.51
2023-03-29T23:10:59.906Z,70.04
2023-03-29T23:13:29.053Z,72.21
2023-03-29T23:16:01.076Z,72.30
2023-03-29T23:18:30.283Z,71.98
2023-03-29T23:20:58.904Z,70.18
2023-03-29T23:23:27.648Z,73.07
2023-03-29T23:25:55.971Z,72.28
2023-03-29T23:28:27.605Z,71.87
2023-03-29T23:31:03.284Z,72.18
2023-03-29T23:33:35.328Z,71.85
2023-03-29T23:36:04.634Z,69.43
2023-03-29T23:38:34.111Z,72.36
2023-03-29T23:41:03.419Z,73.62
2023-03-29T23:43:35.435Z,74.15
2023-03-29T23:46:07.771Z,74.27
2023-03-29T23:48:34.564Z,74.92
2023-03-29T23:51:02.408Z,73.93
2023-03-29T23:53:30.392Z,72.95
2023-03-29T23:56:02.098Z,72.95
2023-03-29T23:58:30.557Z,72.13
